Time;durP1;ratioP1;P1;durP2;ratioP2;P2;SDS_P1;SDS_P2;PMS_P1;PMS_P2;Temp;Humidity;BMP_temperature;BMP_pressure;BME280_temperature;BME280_humidity;BME280_pressure;Samples;Min_cycle;Max_cycle;Signal;HPM_P1;HPM_P2
2022/02/01 00:02:09;;;;;;;7.30;2.13;;;;;;;;;;5054675;28;20080;-75
2022/02/01 00:10:07;;;;;;;7.10;2.15;;;;;;;;;;5054414;28;20036;-75
2022/02/01 00:12:50;;;;;;;5.38;1.40;;;;;;;;;;5054965;28;20090;-75
2022/02/01 00:18:01;;;;;;;6.22;1.85;;;;;;;;;;5054735;28;20546;-75
2022/02/01 00:34:59;;;;;;;5.43;1.38;;;;;;;;;;5053997;28;20036;-75
2022/02/01 00:37:23;;;;;;;9.68;1.80;;;;;;;;;;5053753;28;20073;-74
2022/02/01 00:39:56;;;;;;;6.10;1.55;;;;;;;;;;5055112;28;20044;-74
2022/02/01 00:42:22;;;;;;;5.93;1.92;;;;;;;;;;5054193;28;20441;-74
2022/02/01 00:44:48;;;;;;;9.73;1.75;;;;;;;;;;5055026;28;20033;-75
2022/02/01 00:47:15;;;;;;;7.65;1.70;;;;;;;;;;5054142;28;20036;-74
2022/02/01 00:49:42;;;;;;;9.18;2.13;;;;;;;;;;5054906;28;20063;-75
2022/02/01 00:52:08;;;;;;;7.80;2.35;;;;;;;;;;5054345;28;20124;-75
2022/02/01 00:54:37;;;;;;;6.00;1.42;;;;;;;;;;5058046;28;20040;-75
2022/02/01 00:57:04;;;;;;;8.20;2.03;;;;;;;;;;5058251;28;20044;-75
2022/02/01 00:59:30;;;;;;;10.45;1.73;;;;;;;;;;5059082;28;20036;-75
2022/02/01 01:01:56;;;;;;;5.05;1.25;;;;;;;;;;5058047;28;20050;-75
2022/02/01 01:04:22;;;;;;;9.07;1.80;;;;;;;;;;5058215;28;20039;-75
2022/02/01 01:06:48;;;;;;;8.88;1.73;;;;;;;;;;5058472;28;20136;-75
2022/02/01 01:09:15;;;;;;;9.93;1.90;;;;;;;;;;5059184;28;20040;-75
2022/02/01 01:11:41;;;;;;;9.52;2.00;;;;;;;;;;5059048;28;20041;-75
2022/02/01 01:44:20;;;;;;;3.78;1.40;;;;;;;;;;5057609;28;20039;-75
2022/02/01 01:55:03;;;;;;;5.78;1.30;;;;;;;;;;5057222;28;20124;-75
2022/02/01 01:57:29;;;;;;;7.75;1.90;;;;;;;;;;5057397;28;20064;-75
2022/02/01 01:59:55;;;;;;;10.93;1.92;;;;;;;;;;5057938;28;20041;-75
2022/02/01 02:02:21;;;;;;;5.45;1.90;;;;;;;;;;5057242;28;20058;-75
2022/02/01 02:04:47;;;;;;;10.25;1.98;;;;;;;;;;5057539;28;20051;-75
2022/02/01 02:07:13;;;;;;;5.18;1.80;;;;;;;;;;5057688;28;20060;-75
2022/02/01 02:09:40;;;;;;;10.20;1.77;;;;;;;;;;5057484;28;20489;-75
2022/02/01 02:12:16;;;;;;;7.90;2.13;;;;;;;;;;5056814;28;20037;-75
2022/02/01 02:14:43;;;;;;;9.50;2.20;;;;;;;;;;5057096;28;20044;-75
2022/02/01 02:17:10;;;;;;;8.68;1.80;;;;;;;;;;5057052;28;20069;-75
2022/02/01 02:19:36;;;;;;;9.07;2.10;;;;;;;;;;5057490;28;20033;-75
2022/02/01 02:22:06;;;;;;;5.97;1.83;;;;;;;;;;5057286;28;20067;-75
2022/02/01 02:24:36;;;;;;;7.47;2.08;;;;;;;;;;5056846;28;20513;-75
2022/02/01 02:27:02;;;;;;;7.50;1.88;;;;;;;;;;5056797;28;20078;-75
2022/02/01 02:29:29;;;;;;;6.22;1.63;;;;;;;;;;5057162;28;20033;-75
2022/02/01 02:31:56;;;;;;;8.32;2.60;;;4.90;1.00;;;;;;5056769;28;20036;-75
2022/02/01 02:34:22;;;;;;;9.80;2.55;;;5.20;1.00;;;;;;5056469;28;20052;-75
2022/02/01 02:36:54;;;;;;;9.85;2.22;;;5.20;1.00;;;;;;5056628;28;20037;-75
2022/02/01 02:39:29;;;;;;;15.30;2.03;;;5.10;1.00;;;;;;5056337;28;20071;-75
2022/02/01 02:42:24;;;;;;;8.52;1.75;;;5.20;1.00;;;;;;5056818;28;20483;-75
2022/02/01 02:45:09;;;;;;;5.70;1.75;;;5.00;1.00;;;;;;5056543;28;20087;-75
2022/02/01 02:47:35;;;;;;;5.53;1.85;;;5.00;1.00;;;;;;5056139;28;20561;-75
2022/02/01 02:50:02;;;;;;;7.88;2.08;;;5.10;1.00;;;;;;5056481;28;20021;-74
2022/02/01 02:52:28;;;;;;;12.23;2.38;;;5.10;1.00;;;;;;5056093;28;20045;-75
2022/02/01 02:54:58;;;;;;;8.07;2.63;;;5.00;1.00;;;;;;5056318;28;20119;-75
2022/02/01 02:57:25;;;;;;;6.95;2.50;;;5.00;1.00;;;;;;5056446;28;20033;-74
2022/02/01 02:59:51;;;;;;;9.18;2.08;;;5.00;1.00;;;;;;5056861;28;20071;-75
2022/02/01 03:02:17;;;;;;;5.75;2.00;;;5.10;4.00;;;;;;5055838;28;20041;-75
2022/02/01 03:04:46;;;;;;;11.10;2.80;;;5.00;1.00;;;;;;5055951;28;20035;-74
2022/02/01 03:07:12;;;;;;;9.45;2.60;;;4.90;1.00;;;;;;5055578;28;20111;-75
2022/02/01 03:09:41;;;;;;;7.63;1.90;;;5.00;1.00;;;;;;5056040;28;20141;-74
2022/02/01 03:12:13;;;;;;;7.45;2.03;;;5.00;1.00;;;;;;5055906;28;20037;-75
2022/02/01 03:19:57;;;;;;;11.10;2.58;;;4.90;7.60;;;;;;5056041;28;20029;-75
2022/02/01 03:22:26;;;;;;;7.15;2.00;;;4.90;9.10;;;;;;5055888;28;20056;-75
2022/02/01 03:24:53;;;;;;;8.80;2.00;;;4.90;10.30;;;;;;5055656;28;20483;-75
2022/02/01 03:27:20;;;;;;;5.13;2.08;;;4.90;9.20;;;;;;5055697;28;20029;-75
2022/02/01 03:29:48;;;;;;;6.65;2.45;;;5.00;7.10;;;;;;5055708;28;20032;-75
2022/02/01 03:32:15;;;;;;;8.75;2.58;;;5.00;5.40;;;;;;5055758;28;20037;-75
2022/02/01 03:34:41;;;;;;;8.25;2.15;;;5.00;1.00;;;;;;5055188;28;20033;-75
2022/02/01 03:37:07;;;;;;;6.25;1.73;;;4.80;1.00;;;;;;5055500;28;20033;-75
2022/02/01 03:39:33;;;;;;;7.80;2.13;;;4.90;1.00;;;;;;5056013;28;20043;-75
2022/02/01 03:42:01;;;;;;;8.95;2.15;;;4.90;1.00;;;;;;5055740;28;20506;-75
2022/02/01 03:44:28;;;;;;;8.02;1.98;;;4.90;1.00;;;;;;5055323;28;20025;-75
2022/02/01 03:47:01;;;;;;;9.18;2.42;;;4.80;1.00;;;;;;5055074;28;20052;-75
2022/02/01 03:49:28;;;;;;;10.15;2.38;;;4.60;1.00;;;;;;5055461;28;20041;-75
2022/02/01 03:51:58;;;;;;;9.52;2.10;;;4.70;1.00;;;;;;5055118;28;20036;-75
2022/02/01 03:54:28;;;;;;;10.35;3.00;;;4.80;1.00;;;;;;5054822;28;20511;-75
2022/02/01 03:56:55;;;;;;;11.48;3.35;;;4.70;1.00;;;;;;5055212;28;20037;-75
2022/02/01 03:59:22;;;;;;;9.65;2.40;;;4.70;1.00;;;;;;5054769;28;20037;-74
2022/02/01 04:01:55;;;;;;;6.28;2.90;;;4.70;1.00;;;;;;5054910;28;20041;-75
2022/02/01 04:04:24;;;;;;;7.03;2.17;;;4.70;1.00;;;;;;5055416;28;20040;-75
2022/02/01 04:06:51;;;;;;;14.10;3.33;;;4.70;1.00;;;;;;5055331;28;20033;-75
2022/02/01 04:09:16;;;;;;;11.68;2.65;;;4.60;1.00;;;;;;5054922;28;20036;-75
2022/02/01 04:11:43;;;;;;;7.97;2.33;;;4.60;1.00;;;;;;5055688;28;20049;-75
2022/02/01 04:14:11;;;;;;;8.20;2.67;;;4.70;1.00;;;;;;5055229;28;20032;-74
2022/02/01 04:16:37;;;;;;;11.10;3.25;;;4.60;1.80;;;;;;5054776;28;20549;-75
2022/02/01 04:19:05;;;;;;;7.78;2.13;;;4.50;2.30;;;;;;5054907;28;20033;-75
2022/02/01 04:21:31;;;;;;;8.90;2.13;;;4.50;2.50;;;;;;5055496;28;20460;-75
2022/02/01 04:23:56;;;;;;;8.63;2.25;;;4.40;2.60;;;;;;5054623;28;20029;-75
2022/02/01 04:26:22;;;;;;;6.53;2.13;;;4.40;4.10;;;;;;5055237;28;20123;-75
2022/02/01 04:28:49;;;;;;;8.13;2.17;;;4.30;1.20;;;;;;5054113;28;20167;-75
2022/02/01 04:31:14;;;;;;;11.35;2.70;;;4.40;1.80;;;;;;5054850;28;20048;-75
2022/02/01 04:33:40;;;;;;;8.75;2.38;;;4.40;1.10;;;;;;5054992;28;20033;-75
2022/02/01 04:36:06;;;;;;;9.45;2.92;;;4.40;1.70;;;;;;5054555;28;20120;-75
2022/02/01 04:38:34;;;;;;;10.20;3.00;;;4.40;2.50;;;;;;5054877;28;20371;-75
2022/02/01 04:41:01;;;;;;;9.25;2.13;;;4.40;2.40;;;;;;5054704;28;20132;-75
2022/02/01 04:43:27;;;;;;;11.57;2.80;;;4.40;10.90;;;;;;5054669;28;20040;-75
2022/02/01 04:45:52;;;;;;;8.43;1.92;;;4.00;2.70;;;;;;5054432;28;20037;-75
2022/02/01 04:48:18;;;;;;;11.75;3.55;;;4.30;11.50;;;;;;5054479;28;20029;-75
2022/02/01 04:50:44;;;;;;;7.53;2.22;;;4.30;4.00;;;;;;5054858;28;20033;-75
2022/02/01 04:53:10;;;;;;;9.05;2.78;;;4.20;5.60;;;;;;5056118;28;20514;-75
2022/02/01 04:55:54;;;;;;;10.23;2.35;;;4.10;6.60;;;;;;5073492;28;20032;-75
2022/02/01 04:58:24;;;;;;;10.15;2.20;;;4.20;5.30;;;;;;5073272;28;20100;-75
2022/02/01 05:00:50;;;;;;;8.98;1.92;;;4.10;6.20;;;;;;5073229;28;20048;-74
2022/02/01 05:03:17;;;;;;;10.80;2.88;;;4.00;4.70;;;;;;5073431;28;20085;-75
2022/02/01 05:05:44;;;;;;;9.45;2.38;;;3.90;5.40;;;;;;5055734;28;20380;-75
2022/02/01 05:08:12;;;;;;;10.48;2.58;;;3.80;7.50;;;;;;5058678;28;20511;-75
2022/02/01 05:10:38;;;;;;;11.30;3.17;;;3.60;18.20;;;;;;5073659;28;20028;-75
2022/02/01 05:16:01;;;;;;;12.60;2.65;;;3.70;18.00;;;;;;5094023;28;20100;-75
2022/02/01 05:18:29;;;;;;;6.45;1.98;;;3.70;17.30;;;;;;5093948;28;20042;-75
2022/02/01 05:21:05;;;;;;;6.25;2.17;;;3.80;18.90;;;;;;5068184;28;20044;-75
2022/02/01 05:23:31;;;;;;;10.27;2.67;;;3.80;15.90;;;;;;5054202;28;20473;-74
2022/02/01 05:25:59;;;;;;;13.32;2.40;;;3.70;16.70;;;;;;5054071;28;20080;-75
2022/02/01 05:28:25;;;;;;;9.27;2.50;;;3.60;15.50;;;;;;5053944;28;20072;-74
2022/02/01 05:30:53;;;;;;;11.48;2.55;;;3.60;14.90;;;;;;5056130;28;20098;-73
2022/02/01 05:33:19;;;;;;;9.25;2.13;;;3.90;14.00;;;;;;5063666;28;20480;-73
2022/02/01 05:35:45;;;;;;;7.55;2.03;;;3.80;12.90;;;;;;5053664;28;20037;-72
2022/02/01 05:38:10;;;;;;;6.35;2.17;;;4.00;12.60;;;;;;5054071;28;20361;-72
2022/02/01 05:40:37;;;;;;;10.55;3.30;;;3.90;12.20;;;;;;5056565;28;20044;-72
2022/02/01 05:43:11;;;;;;;10.48;2.35;;;3.80;12.80;;;;;;5057668;28;20152;-72
2022/02/01 05:45:40;;;;;;;8.27;2.30;;;4.00;11.70;;;;;;5055960;28;20127;-73
2022/02/01 05:48:08;;;;;;;9.30;2.00;;;3.80;12.40;;;;;;5057091;28;20037;-72
2022/02/01 05:50:35;;;;;;;8.43;2.10;;;3.90;12.20;;;;;;5057337;28;20040;-72
2022/02/01 05:53:01;;;;;;;6.90;2.00;;;3.80;10.70;;;;;;5057394;28;20047;-72
2022/02/01 05:55:26;;;;;;;11.60;2.28;;;3.80;11.70;;;;;;5057195;28;20384;-73
2022/02/01 05:57:53;;;;;;;12.27;2.35;;;3.80;11.30;;;;;;5057406;28;20043;-73
2022/02/01 06:00:20;;;;;;;6.80;2.20;;;3.60;11.30;;;;;;5057380;28;20167;-72
2022/02/01 06:02:46;;;;;;;11.13;2.03;;;3.60;9.90;;;;;;5057034;28;20472;-72
2022/02/01 06:05:15;;;;;;;6.82;2.13;;;3.70;1.00;;;;;;5089215;28;20044;-72
2022/02/01 06:07:41;;;;;;;7.05;1.90;;;3.60;1.00;;;;;;5097430;28;20390;-72
2022/02/01 06:10:07;;;;;;;6.57;2.15;;;3.70;1.00;;;;;;5097455;28;20036;-71
2022/02/01 06:12:45;;;;;;;8.27;2.03;;;3.50;1.00;;;;;;5097557;28;20043;-71
2022/02/01 06:15:13;;;;;;;12.60;2.60;;;3.40;1.00;;;;;;5097965;28;20093;-73
2022/02/01 06:17:39;;;;;;;10.82;2.10;;;3.30;1.00;;;;;;5097346;28;20123;-72
2022/02/01 06:20:07;;;;;;;11.15;2.80;;;3.40;1.00;;;;;;5097516;28;20354;-72
2022/02/01 06:22:33;;;;;;;7.10;2.25;;;3.40;1.00;;;;;;5085925;28;20499;-73
2022/02/01 06:25:00;;;;;;;9.70;2.05;;;3.30;1.00;;;;;;5063352;28;20021;-73
2022/02/01 06:27:26;;;;;;;7.88;2.05;;;3.30;1.00;;;;;;5066596;28;20502;-72
2022/02/01 06:29:52;;;;;;;10.20;2.20;;;3.40;1.00;;;;;;5064911;28;20499;-73
2022/02/01 06:32:18;;;;;;;10.10;2.30;;;3.30;1.00;;;;;;5066900;28;20127;-72
2022/02/01 06:34:44;;;;;;;12.45;2.70;;;3.20;1.00;;;;;;5066529;28;20367;-72
2022/02/01 06:37:10;;;;;;;11.35;2.72;;;3.20;1.00;;;;;;5064898;28;20087;-72
2022/02/01 06:39:37;;;;;;;8.57;2.53;;;3.40;1.00;;;;;;5067098;28;20024;-73
2022/02/01 06:42:04;;;;;;;7.90;2.28;;;3.30;1.00;;;;;;5066004;28;20484;-72
2022/02/01 06:44:31;;;;;;;9.68;2.33;;;3.40;1.00;;;;;;5070719;28;20024;-73
2022/02/01 06:46:57;;;;;;;10.18;2.42;;;3.30;1.00;;;;;;5076806;28;20097;-73
2022/02/01 06:49:23;;;;;;;13.23;3.03;;;3.10;1.00;;;;;;5076893;28;20082;-73
2022/02/01 06:51:48;;;;;;;7.25;2.20;;;3.10;1.00;;;;;;5075634;28;20044;-74
2022/02/01 06:54:15;;;;;;;7.10;1.90;;;3.30;1.00;;;;;;5076163;28;20036;-74
2022/02/01 06:56:41;;;;;;;8.45;2.05;;;3.20;1.00;;;;;;5076354;28;20506;-74
2022/02/01 06:59:07;;;;;;;7.47;2.03;;;3.30;1.00;;;;;;5077201;28;20032;-74
2022/02/01 07:01:33;;;;;;;10.60;2.15;;;3.20;1.00;;;;;;5076060;28;20135;-74
2022/02/01 07:04:00;;;;;;;9.77;2.17;;;3.00;1.00;;;;;;5075478;28;20040;-74
2022/02/01 07:06:29;;;;;;;7.53;2.10;;;3.00;1.00;;;;;;5075838;28;20117;-74
2022/02/01 07:08:57;;;;;;;8.55;2.33;;;3.00;1.00;;;;;;5075657;28;20518;-73
2022/02/01 07:11:22;;;;;;;5.25;2.05;;;3.10;1.00;;;;;;5075571;28;20047;-73
2022/02/01 07:13:49;;;;;;;7.45;2.13;;;3.10;1.00;;;;;;5075660;28;20024;-73
2022/02/01 07:16:17;;;;;;;10.07;3.08;;;3.10;1.00;;;;;;5075496;28;20035;-73
2022/02/01 07:18:43;;;;;;;12.15;2.75;;;3.30;1.00;;;;;;5075571;28;20038;-73
2022/02/01 07:21:09;;;;;;;10.32;2.30;;;3.20;1.00;;;;;;5075353;28;20479;-73
2022/02/01 07:23:36;;;;;;;13.05;2.70;;;3.20;1.00;;;;;;5075215;28;20031;-73
2022/02/01 07:26:03;;;;;;;8.63;2.28;;;3.20;1.00;;;;;;5075967;28;20036;-73
2022/02/01 07:28:30;;;;;;;8.90;2.30;;;3.40;1.00;;;;;;5075262;28;20028;-73
2022/02/01 07:30:58;;;;;;;7.57;2.75;;;3.50;1.00;;;;;;5074520;28;20036;-73
2022/02/01 07:33:25;;;;;;;11.30;2.60;;;3.40;1.00;;;;;;5074910;28;20028;-73
2022/02/01 07:35:52;;;;;;;7.57;2.53;;;3.40;1.00;;;;;;5075432;28;20043;-73
2022/02/01 07:38:21;;;;;;;11.85;2.17;;;3.30;1.00;;;;;;5074586;28;20115;-73
2022/02/01 07:40:49;;;;;;;9.60;2.65;;;3.30;1.00;;;;;;5074244;28;20123;-73
2022/02/01 07:43:15;;;;;;;8.85;2.10;;;3.20;1.00;;;;;;5090226;28;20035;-71
2022/02/01 07:45:43;;;;;;;13.55;3.05;;;3.30;1.00;;;;;;5095267;28;20059;-72
2022/02/01 07:48:09;;;;;;;11.93;2.17;;;3.40;1.00;;;;;;5095233;28;20032;-72
2022/02/01 07:50:36;;;;;;;5.72;1.88;;;3.40;1.00;;;;;;5095392;28;20036;-71
2022/02/01 07:53:06;;;;;;;10.18;2.30;;;3.50;1.00;;;;;;5093746;28;20028;-71
2022/02/01 07:55:32;;;;;;;10.50;2.30;;;3.60;1.00;;;;;;5093146;28;20050;-71
2022/02/01 07:57:58;;;;;;;6.03;2.17;;;3.60;1.00;;;;;;5093711;28;20106;-71
2022/02/01 08:00:24;;;;;;;17.75;4.32;;;3.60;1.00;;;;;;5095114;28;20063;-72
2022/02/01 08:02:54;;;;;;;14.55;3.92;;;3.60;1.00;;;;;;5094703;28;20060;-72
2022/02/01 08:05:21;;;;;;;12.73;2.95;;;3.70;1.00;;;;;;5094492;28;20032;-72
2022/02/01 08:07:47;;;;;;;10.27;2.88;;;3.80;1.00;;;;;;5094349;28;20043;-72
2022/02/01 08:10:16;;;;;;;9.27;2.33;;;3.70;1.00;;;;;;5095833;28;20047;-72
2022/02/01 08:13:37;;;;;;;12.40;3.15;;;3.80;1.00;;;;;;5094797;28;20047;-72
2022/02/01 08:16:27;;;;;;;7.90;2.40;;;3.70;1.00;;;;;;5094793;28;20036;-72
2022/02/01 08:21:29;;;;;;;8.98;2.00;;;3.60;1.00;;;;;;5095017;28;20031;-72
2022/02/01 08:23:55;;;;;;;8.25;2.45;;;3.70;1.00;;;;;;5095114;28;20532;-72
2022/02/01 08:26:21;;;;;;;9.15;2.10;;;3.70;1.00;;;;;;5094919;28;20035;-72
2022/02/01 08:28:48;;;;;;;9.77;2.90;;;3.70;1.00;;;;;;5094847;28;20087;-72
2022/02/01 08:31:17;;;;;;;13.88;2.40;;;3.60;1.00;;;;;;5095509;28;20032;-72
2022/02/01 08:33:43;;;;;;;8.50;1.98;;;3.50;1.00;;;;;;5095200;28;20067;-72
2022/02/01 08:36:09;;;;;;;7.93;2.25;;;3.60;1.00;;;;;;5095613;28;20090;-72
2022/02/01 08:38:35;;;;;;;9.98;2.72;;;3.60;1.00;;;;;;5094780;28;20497;-72
2022/02/01 08:41:01;;;;;;;7.15;2.10;;;3.60;1.00;;;;;;5095308;28;20032;-72
2022/02/01 08:43:28;;;;;;;11.02;2.53;;;3.50;1.00;;;;;;5094749;28;20040;-72
2022/02/01 08:45:54;;;;;;;9.75;3.05;;;3.50;1.00;;;;;;5094985;28;20056;-72
2022/02/01 08:48:20;;;;;;;5.53;2.33;;;3.60;1.00;;;;;;5094519;28;20062;-72
2022/02/01 08:50:46;;;;;;;10.80;2.97;;;3.60;1.00;;;;;;5095527;28;20063;-72
2022/02/01 08:53:19;;;;;;;8.98;2.30;;;3.70;1.00;;;;;;5094669;28;20043;-72
2022/02/01 08:58:21;;;;;;;10.88;2.45;;;3.70;1.00;;;;;;5094647;28;20114;-72
2022/02/01 09:00:47;;;;;;;5.47;1.90;;;3.90;1.00;;;;;;5094941;28;20554;-72
2022/02/01 09:03:13;;;;;;;10.05;2.45;;;3.80;1.00;;;;;;5094934;28;20036;-72
2022/02/01 09:05:46;;;;;;;8.45;2.40;;;3.80;1.00;;;;;;5094356;28;20028;-72
2022/02/01 09:08:12;;;;;;;9.13;2.10;;;3.80;1.00;;;;;;5094135;28;20059;-72
2022/02/01 09:10:38;;;;;;;11.27;2.75;;;3.90;1.00;;;;;;5094979;28;20086;-72
2022/02/01 09:13:04;;;;;;;8.65;2.40;;;3.90;1.00;;;;;;5094264;28;20044;-72
2022/02/01 09:15:30;;;;;;;8.10;2.50;;;3.90;1.00;;;;;;5097429;28;20109;-72
2022/02/01 09:17:58;;;;;;;8.05;2.35;;;4.00;1.00;;;;;;5098422;28;20483;-72
2022/02/01 09:20:24;;;;;;;7.60;2.75;;;4.10;1.00;;;;;;5097620;28;20028;-72
2022/02/01 09:22:50;;;;;;;10.88;2.40;;;4.10;1.00;;;;;;5098392;28;20039;-72
2022/02/01 09:25:17;;;;;;;6.30;1.98;;;4.00;1.00;;;;;;5098074;28;20032;-72
2022/02/01 09:27:44;;;;;;;9.75;2.45;;;4.00;1.00;;;;;;5098209;28;20024;-72
2022/02/01 09:30:11;;;;;;;12.50;3.70;;;4.00;1.00;;;;;;5098608;28;20035;-72
2022/02/01 09:32:37;;;;;;;8.88;2.72;;;4.00;1.00;;;;;;5098032;28;20483;-72
2022/02/01 09:35:03;;;;;;;13.93;2.95;;;4.00;1.00;;;;;;5097692;28;20050;-72
2022/02/01 09:37:30;;;;;;;12.98;2.67;;;4.00;1.00;;;;;;5098273;28;20032;-72
2022/02/01 09:39:56;;;;;;;9.13;2.63;;;3.90;1.00;;;;;;5098286;28;20057;-72
2022/02/01 09:42:27;;;;;;;8.68;2.05;;;3.90;1.00;;;;;;5097660;28;20036;-72
2022/02/01 09:44:56;;;;;;;8.63;2.47;;;3.90;1.00;;;;;;5098071;28;20381;-72
2022/02/01 09:47:35;;;;;;;9.50;2.75;;;4.00;1.00;;;;;;5098023;28;20520;-72
2022/02/01 09:50:02;;;;;;;11.27;3.33;;;4.00;1.00;;;;;;5097816;28;20043;-72
2022/02/01 09:52:30;;;;;;;16.95;3.85;;;4.00;1.00;;;;;;5098008;28;20032;-72
2022/02/01 09:54:57;;;;;;;13.63;2.80;;;4.10;1.00;;;;;;5097835;28;20108;-72
2022/02/01 09:57:23;;;;;;;13.63;2.50;;;4.10;1.00;;;;;;5097413;28;20039;-72
2022/02/01 09:59:54;;;;;;;12.52;2.22;;;4.20;1.00;;;;;;5097576;28;20081;-72
2022/02/01 10:02:20;;;;;;;;;;;4.20;1.00;;;;;;5097700;28;20559;-72
2022/02/01 10:04:59;;;;;;;12.15;2.67;;;4.30;1.00;;;;;;5097335;28;19904;-72
2022/02/01 10:07:25;;;;;;;8.00;2.40;;;4.30;1.00;;;;;;5097802;28;20181;-72
2022/02/01 10:09:55;;;;;;;10.80;2.10;;;4.30;1.00;;;;;;5097808;28;20122;-72
2022/02/01 10:12:21;;;;;;;8.43;2.58;;;4.30;1.00;;;;;;5097417;28;20497;-72
2022/02/01 10:15:24;;;;;;;9.25;2.55;;;4.40;1.00;;;;;;5098195;28;20035;-72
2022/02/01 10:17:58;;;;;;;11.95;2.60;;;4.30;1.00;;;;;;5094445;28;20129;-72
2022/02/01 10:20:42;;;;;;;13.07;2.35;;;4.20;1.00;;;;;;5097015;28;20034;-72
2022/02/01 10:23:26;;;;;;;7.53;2.15;;;4.30;1.00;;;;;;5096889;28;20182;-72
2022/02/01 10:26:02;;;;;;;12.82;2.72;;;4.40;1.00;;;;;;5096452;28;20120;-72
2022/02/01 10:28:47;;;;;;;8.13;1.88;;;4.50;1.00;;;;;;5097245;28;20070;-72
2022/02/01 10:31:34;;;;;;;7.15;2.40;;;4.50;1.00;;;;;;5097932;28;20054;-72
2022/02/01 10:37:01;;;;;;;17.05;2.80;;;4.50;1.00;;;;;;5057956;28;20017;-73
2022/02/01 10:39:33;;;;;;;9.98;2.65;;;4.50;1.00;;;;;;5056543;28;20087;-72
2022/02/01 10:42:03;;;;;;;12.55;2.47;;;4.60;1.00;;;;;;5070307;28;20122;-73
2022/02/01 10:44:44;;;;;;;8.48;2.45;;;4.50;1.00;;;;;;5071312;28;20033;-73
2022/02/01 10:47:17;;;;;;;12.63;2.47;;;4.60;1.00;;;;;;5055929;28;20108;-72
2022/02/01 10:49:43;;;;;;;10.13;2.72;;;4.70;1.00;;;;;;5056458;28;20051;-73
2022/02/01 10:52:11;;;;;;;14.93;3.65;;;4.50;1.00;;;;;;5055694;28;20119;-72
2022/02/01 10:54:40;;;;;;;8.80;2.20;;;4.60;1.00;;;;;;5062496;28;20041;-71
2022/02/01 10:57:10;;;;;;;15.82;3.30;;;4.60;1.00;;;;;;5060728;28;20024;-71
2022/02/01 10:59:37;;;;;;;11.02;2.65;;;4.70;1.00;;;;;;5074942;28;20510;-71
2022/02/01 11:02:04;;;;;;;10.80;3.45;;;4.80;1.00;;;;;;5063339;28;20049;-72
2022/02/01 11:04:36;;;;;;;10.48;2.30;;;4.70;1.00;;;;;;5055668;28;20039;-71
2022/02/01 11:07:02;;;;;;;11.43;2.20;;;4.80;1.00;;;;;;5055162;28;20503;-71
2022/02/01 11:09:34;;;;;;;9.63;3.00;;;4.80;1.00;;;;;;5054899;28;20036;-71
2022/02/01 11:12:11;;;;;;;8.63;2.92;;;4.80;1.00;;;;;;5055578;28;20033;-71
2022/02/01 11:14:39;;;;;;;10.88;2.53;;;4.80;1.00;;;;;;5065264;28;20078;-71
2022/02/01 11:17:14;;;;;;;10.80;3.28;;;4.80;1.00;;;;;;5075342;28;20036;-72
2022/02/01 11:19:57;;;;;;;15.40;3.85;;;4.80;1.00;;;;;;5074385;28;20033;-71
2022/02/01 11:22:32;;;;;;;11.70;3.08;;;4.80;1.00;;;;;;5073722;28;20081;-71
2022/02/01 11:25:21;;;;;;;11.05;3.20;;;4.90;1.00;;;;;;5064849;28;20067;-72
2022/02/01 11:28:09;;;;;;;13.13;3.45;;;4.90;1.00;;;;;;5057924;28;20431;-71
2022/02/01 11:30:36;;;;;;;11.23;2.75;;;4.80;1.00;;;;;;5086946;28;20064;-71
2022/02/01 11:33:08;;;;;;;10.65;2.70;;;4.80;1.00;;;;;;5065981;28;20563;-72
2022/02/01 11:35:35;;;;;;;8.38;2.88;;;4.90;1.00;;;;;;5066781;28;20024;-71
2022/02/01 11:38:03;;;;;;;9.88;3.03;;;5.00;1.00;;;;;;5055982;28;20029;-71
2022/02/01 11:40:41;;;;;;;11.30;2.80;;;5.00;1.00;;;;;;5092641;28;20124;-71
2022/02/01 11:43:11;;;;;;;11.70;2.83;;;5.10;1.00;;;;;;5072078;28;20036;-71
2022/02/01 11:45:52;;;;;;;8.30;2.97;;;5.00;1.00;;;;;;5072456;28;20035;-72
2022/02/01 11:48:23;;;;;;;12.02;2.97;;;5.10;1.00;;;;;;5074333;28;20141;-71
2022/02/01 11:50:54;;;;;;;11.38;2.60;;;5.10;1.00;;;;;;5074447;28;20044;-71
2022/02/01 11:53:24;;;;;;;12.32;2.50;;;5.20;1.00;;;;;;5074327;28;20085;-71
2022/02/01 11:55:52;;;;;;;10.63;3.22;;;5.20;1.00;;;;;;5074663;28;20032;-72
2022/02/01 11:58:38;;;;;;;14.88;3.30;;;5.20;1.00;;;;;;5080761;28;20039;-71
2022/02/01 12:01:19;;;;;;;17.10;3.28;;;5.20;1.00;;;;;;5094056;28;20533;-72
2022/02/01 12:03:45;;;;;;;12.25;3.78;;;5.30;1.00;;;;;;5065987;28;20376;-70
2022/02/01 12:06:20;;;;;;;17.50;3.00;;;5.30;1.00;;;;;;5054022;28;20032;-71
2022/02/01 12:08:48;;;;;;;15.90;2.40;;;5.40;1.00;;;;;;5053772;28;20511;-70
2022/02/01 12:11:15;;;;;;;10.65;3.00;;;5.40;1.00;;;;;;5053342;28;20386;-70
2022/02/01 12:13:41;;;;;;;11.07;3.92;;;5.40;1.00;;;;;;5053555;28;20124;-71
2022/02/01 12:16:10;;;;;;;8.13;2.70;;;5.50;1.00;;;;;;5053207;28;20032;-70
2022/02/01 12:18:50;;;;;;;11.13;2.53;;;5.50;1.00;;;;;;5053763;28;20136;-70
2022/02/01 12:21:25;;;;;;;13.02;2.70;;;5.40;1.00;;;;;;5054454;28;20037;-71
2022/02/01 12:23:52;;;;;;;11.55;2.88;;;5.40;1.00;;;;;;5053174;28;20040;-71
2022/02/01 12:26:20;;;;;;;11.82;2.90;;;5.40;1.00;;;;;;5053937;28;20021;-71
2022/02/01 12:28:46;;;;;;;15.10;2.65;;;5.50;1.00;;;;;;5053129;28;20033;-71
2022/02/01 12:31:14;;;;;;;13.80;3.65;;;5.60;1.00;;;;;;5053012;28;20043;-71
2022/02/01 12:33:42;;;;;;;10.50;3.00;;;5.60;1.00;;;;;;5053410;28;20448;-71
2022/02/01 12:36:11;;;;;;;12.20;3.22;;;5.60;1.00;;;;;;5056867;28;20067;-71
2022/02/01 12:38:39;;;;;;;12.60;3.05;;;5.70;1.00;;;;;;5069603;28;20028;-70
2022/02/01 12:41:43;;;;;;;8.45;2.67;;;5.70;1.00;;;;;;5073447;28;20036;-71
2022/02/01 12:47:01;;;;;;;10.38;2.90;;;5.70;1.00;;;;;;5073905;28;20024;-72
2022/02/01 12:49:47;;;;;;;12.27;2.97;;;5.70;1.00;;;;;;5038059;28;20540;-72
2022/02/01 12:52:20;;;;;;;18.77;3.65;;;5.70;1.00;;;;;;5053542;28;20033;-71
2022/02/01 12:54:47;;;;;;;14.20;3.72;;;5.60;1.00;;;;;;5053599;28;20033;-71
2022/02/01 12:57:16;;;;;;;10.13;2.78;;;5.70;1.00;;;;;;5045765;28;20040;-71
2022/02/01 12:59:43;;;;;;;9.15;3.00;;;5.70;1.00;;;;;;5072591;28;20064;-71
2022/02/01 13:02:11;;;;;;;9.68;2.75;;;5.50;1.00;;;;;;5058831;28;20033;-70
2022/02/01 13:04:38;;;;;;;11.25;3.28;;;5.70;1.00;;;;;;5092161;28;20543;-70
2022/02/01 13:07:14;;;;;;;13.27;3.75;;;5.80;1.00;;;;;;5093018;28;20058;-71
2022/02/01 13:15:13;;;;;;;6.97;2.75;;;5.70;1.00;;;;;;5093106;28;20114;-70
2022/02/01 13:17:44;;;;;;;9.50;2.70;;;5.80;1.00;;;;;;5093044;28;20036;-71
2022/02/01 13:20:20;;;;;;;11.40;3.47;;;5.80;1.00;;;;;;5093508;28;20112;-71
2022/02/01 13:22:58;;;;;;;15.88;3.20;;;6.00;1.00;;;;;;5093337;28;20044;-71
2022/02/01 13:25:43;;;;;;;9.77;2.63;;;5.90;1.00;;;;;;5094418;28;20486;-71
2022/02/01 13:28:14;;;;;;;11.25;2.35;;;5.90;1.00;;;;;;5091698;28;20056;-70
2022/02/01 13:30:45;;;;;;;10.40;3.25;;;5.80;1.00;;;;;;5092006;28;20042;-71
2022/02/01 13:33:16;;;;;;;5.93;2.65;;;5.90;1.00;;;;;;5089782;28;20261;-71
2022/02/01 13:35:49;;;;;;;11.07;2.33;;;5.90;1.00;;;;;;5091203;28;20036;-70
2022/02/01 13:38:16;;;;;;;9.68;2.80;;;5.80;1.00;;;;;;5092994;28;20054;-71
2022/02/01 13:40:42;;;;;;;13.63;3.13;;;5.90;1.00;;;;;;5094036;28;20482;-71
2022/02/01 13:43:26;;;;;;;10.82;2.75;;;6.00;1.00;;;;;;5074849;28;20041;-71
2022/02/01 13:45:54;;;;;;;14.38;2.80;;;6.00;1.00;;;;;;5053068;28;20037;-71
2022/02/01 13:48:28;;;;;;;11.02;2.35;;;6.00;1.00;;;;;;5053304;28;20239;-71
2022/02/01 13:51:04;;;;;;;13.50;3.25;;;6.10;1.00;;;;;;5067018;28;20032;-71
2022/02/01 13:53:31;;;;;;;11.73;3.15;;;6.00;1.00;;;;;;5073182;28;20079;-71
2022/02/01 13:56:11;;;;;;;9.55;2.75;;;5.90;1.00;;;;;;5072749;28;20029;-71
2022/02/01 13:58:39;;;;;;;7.90;2.30;;;6.00;1.00;;;;;;5072439;28;20428;-71
2022/02/01 14:01:18;;;;;;;12.65;2.25;;;6.00;1.00;;;;;;5075366;28;20032;-71
2022/02/01 14:03:54;;;;;;;13.00;2.50;;;6.10;1.00;;;;;;5076955;28;20051;-71
2022/02/01 14:06:47;;;;;;;10.15;2.70;;;6.10;1.00;;;;;;5075963;28;20399;-71
2022/02/01 14:12:36;;;;;;;9.77;2.58;;;6.10;1.00;;;;;;5055209;28;20436;-71
2022/02/01 14:25:46;;;;;;;8.88;2.30;;;6.20;1.00;;;;;;5036214;28;20045;-71
2022/02/01 14:36:21;;;;;;;9.80;2.00;;;6.20;1.00;;;;;;5055644;28;20507;-71
2022/02/01 14:39:05;;;;;;;7.95;2.22;;;6.10;1.00;;;;;;5055598;28;20033;-71
2022/02/01 14:46:42;;;;;;;11.05;3.45;;;6.00;1.00;;;;;;5055817;28;20029;-70
2022/02/01 14:49:07;;;;;;;8.02;2.28;;;6.00;1.00;;;;;;5055214;28;20036;-70
2022/02/01 14:51:34;;;;;;;7.95;2.08;;;6.10;1.00;;;;;;5063076;28;20052;-71
2022/02/01 14:54:00;;;;;;;9.63;2.10;;;6.10;1.00;;;;;;5068977;28;20033;-70
2022/02/01 14:56:35;;;;;;;5.57;2.10;;;6.10;1.00;;;;;;5061601;28;20043;-70
2022/02/01 15:03:45;;;;;;;7.32;2.47;;;5.90;1.00;;;;;;5075137;28;20044;-70
2022/02/01 15:07:36;;;;;;;5.45;1.73;;;6.00;1.00;;;;;;5065261;28;20504;-70
2022/02/01 15:12:49;;;;;;;9.43;2.53;;;5.90;1.00;;;;;;5066112;28;20094;-70
2022/02/01 15:15:15;;;;;;;6.80;1.90;;;5.80;1.00;;;;;;5063243;28;20035;-71
2022/02/01 15:17:42;;;;;;;6.57;2.10;;;5.80;1.00;;;;;;5061171;28;20086;-71
2022/02/01 15:20:09;;;;;;;7.60;2.03;;;5.90;1.00;;;;;;5057938;28;20120;-71
2022/02/01 15:22:36;;;;;;;4.95;1.33;;;5.80;1.00;;;;;;5059922;28;20032;-71
2022/02/01 15:25:03;;;;;;;6.10;1.50;;;5.80;1.00;;;;;;5066137;28;20500;-71
2022/02/01 15:27:29;;;;;;;5.40;1.75;;;5.80;1.00;;;;;;5066490;28;20040;-71